Time;durP1;ratioP1;P1;durP2;ratioP2;P2;SDS_P1;SDS_P2;PMS_P1;PMS_P2;Temp;Humidity;BMP_temperature;BMP_pressure;BME280_temperature;BME280_humidity;BME280_pressure;Samples;Min_cycle;Max_cycle;Signal;HPM_P1;HPM_P2
2024/03/06 00:00:04;;;;;;;6.55;3.97;;;9.00;89.90;;;;;;5070955;28;20029;-68
2024/03/06 00:02:29;;;;;;;6.05;3.83;;;9.00;89.80;;;;;;5068279;28;20390;-67
2024/03/06 00:04:55;;;;;;;4.90;3.30;;;8.90;89.80;;;;;;5066430;28;20025;-66
2024/03/06 00:07:20;;;;;;;6.95;4.30;;;8.90;90.00;;;;;;5070337;28;20021;-66
2024/03/06 00:09:46;;;;;;;7.20;4.22;;;8.90;90.00;;;;;;5073510;28;20028;-67
2024/03/06 00:12:11;;;;;;;6.05;3.92;;;8.80;90.00;;;;;;5076237;28;20099;-67
2024/03/06 00:14:37;;;;;;;6.78;4.20;;;8.80;90.00;;;;;;5071356;28;20059;-66
2024/03/06 00:17:06;;;;;;;7.18;4.13;;;8.80;90.10;;;;;;5076020;28;20601;-66
2024/03/06 00:19:32;;;;;;;6.32;4.05;;;8.70;90.10;;;;;;5071250;28;20115;-67
2024/03/06 00:21:59;;;;;;;4.97;3.30;;;8.70;90.20;;;;;;5068021;28;20586;-67
2024/03/06 00:24:25;;;;;;;6.60;4.22;;;8.80;90.20;;;;;;5076837;28;20020;-67
2024/03/06 00:26:50;;;;;;;5.75;3.60;;;8.60;90.20;;;;;;5070613;28;20078;-67
2024/03/06 00:29:16;;;;;;;4.72;3.58;;;8.70;90.30;;;;;;5069511;28;20079;-69
2024/03/06 00:31:45;;;;;;;5.82;3.50;;;8.60;90.40;;;;;;5064533;28;20032;-68
2024/03/06 00:34:13;;;;;;;6.00;4.03;;;8.70;90.40;;;;;;5074365;28;20716;-67
2024/03/06 00:36:39;;;;;;;6.25;3.90;;;8.70;90.40;;;;;;5072524;28;20039;-68
2024/03/06 00:39:05;;;;;;;6.63;4.03;;;8.60;90.40;;;;;;5081248;28;20024;-66
2024/03/06 00:41:31;;;;;;;6.47;4.05;;;8.60;90.40;;;;;;5066486;28;20494;-66
2024/03/06 00:43:57;;;;;;;5.40;3.40;;;8.60;90.50;;;;;;5075806;28;20076;-67
2024/03/06 00:46:23;;;;;;;5.88;3.80;;;8.60;90.40;;;;;;5071121;28;20482;-66
2024/03/06 00:48:48;;;;;;;6.53;3.67;;;8.60;90.40;;;;;;5076124;28;20024;-66
2024/03/06 00:51:14;;;;;;;6.35;4.15;;;8.60;90.40;;;;;;5074205;28;20162;-65
2024/03/06 00:53:40;;;;;;;7.25;4.53;;;8.60;90.40;;;;;;5072532;28;20111;-66
2024/03/06 00:56:07;;;;;;;7.43;4.43;;;8.60;90.50;;;;;;5075123;28;20040;-65
2024/03/06 00:58:33;;;;;;;5.88;4.05;;;8.60;90.40;;;;;;5079420;28;20021;-66
2024/03/06 01:00:58;;;;;;;7.47;4.25;;;8.60;90.40;;;;;;5071968;28;20043;-66
2024/03/06 01:03:24;;;;;;;7.40;4.60;;;8.60;90.50;;;;;;5070697;28;20020;-66
2024/03/06 01:05:52;;;;;;;8.20;4.40;;;8.50;90.50;;;;;;5074121;28;20035;-66
2024/03/06 01:08:17;;;;;;;7.47;4.47;;;8.50;90.60;;;;;;5074164;28;20024;-65
2024/03/06 01:10:43;;;;;;;7.10;4.32;;;8.50;90.60;;;;;;5073719;28;20024;-66
2024/03/06 01:13:10;;;;;;;6.57;4.25;;;8.50;90.50;;;;;;5077044;28;20024;-66
2024/03/06 01:15:39;;;;;;;7.88;4.60;;;8.60;90.50;;;;;;5074934;28;20028;-66
2024/03/06 01:18:05;;;;;;;7.25;4.38;;;8.60;90.40;;;;;;5071888;28;20024;-66
2024/03/06 01:20:30;;;;;;;6.32;4.35;;;8.60;90.40;;;;;;5072935;28;20052;-66
2024/03/06 01:22:56;;;;;;;7.13;4.40;;;8.60;90.30;;;;;;5071478;28;20652;-67
2024/03/06 01:25:21;;;;;;;6.85;4.43;;;8.50;90.30;;;;;;5075559;28;20021;-67
2024/03/06 01:27:50;;;;;;;6.57;4.13;;;8.50;90.30;;;;;;5071869;28;20081;-67
2024/03/06 01:30:15;;;;;;;7.43;4.70;;;8.50;90.30;;;;;;5076252;28;20130;-67
2024/03/06 01:32:41;;;;;;;7.80;4.63;;;8.50;90.20;;;;;;5077551;28;20099;-67
2024/03/06 01:35:07;;;;;;;7.10;4.45;;;8.50;90.30;;;;;;5065686;28;20445;-67
2024/03/06 01:37:32;;;;;;;7.00;4.50;;;8.40;90.20;;;;;;5068345;28;20039;-67
2024/03/06 01:39:58;;;;;;;7.05;4.45;;;8.40;90.20;;;;;;5082278;28;20036;-67
2024/03/06 01:42:24;;;;;;;7.20;4.30;;;8.40;90.10;;;;;;5070852;28;20110;-67
2024/03/06 01:44:49;;;;;;;6.78;4.50;;;8.40;90.20;;;;;;5070234;28;20601;-67
2024/03/06 01:47:15;;;;;;;6.68;4.43;;;8.30;90.20;;;;;;5074190;28;20052;-67
2024/03/06 01:49:42;;;;;;;7.07;4.38;;;8.30;90.30;;;;;;5078841;28;20029;-67
2024/03/06 01:52:11;;;;;;;7.55;4.30;;;8.20;90.30;;;;;;5076543;28;20020;-66
2024/03/06 01:54:38;;;;;;;6.38;4.30;;;8.20;90.30;;;;;;5077754;28;20027;-66
2024/03/06 01:57:06;;;;;;;6.95;4.55;;;8.10;90.30;;;;;;5072609;28;20025;-66
2024/03/06 01:59:31;;;;;;;6.88;4.30;;;8.10;90.40;;;;;;5071326;28;20020;-66
2024/03/06 02:01:57;;;;;;;7.78;5.03;;;8.10;90.30;;;;;;5067146;28;20040;-66
2024/03/06 02:04:26;;;;;;;6.78;4.38;;;8.10;90.30;;;;;;5069233;28;20081;-67
2024/03/06 02:06:52;;;;;;;7.90;5.03;;;8.00;90.40;;;;;;5068530;28;20028;-66
2024/03/06 02:09:19;;;;;;;8.43;4.40;;;8.00;90.40;;;;;;5068036;28;20017;-66
2024/03/06 02:11:45;;;;;;;6.95;4.47;;;8.00;90.40;;;;;;5069938;28;20029;-67
2024/03/06 02:14:11;;;;;;;6.35;4.38;;;8.00;90.30;;;;;;5072151;28;20078;-66
2024/03/06 02:16:38;;;;;;;7.28;4.88;;;7.90;90.20;;;;;;5078353;28;20529;-67
2024/03/06 02:19:05;;;;;;;7.85;4.70;;;7.90;90.30;;;;;;5069551;28;20028;-66
2024/03/06 02:21:30;;;;;;;7.47;4.82;;;7.80;90.40;;;;;;5073254;28;20027;-67
2024/03/06 02:23:56;;;;;;;6.78;4.65;;;7.80;90.40;;;;;;5064388;28;20054;-65
2024/03/06 02:26:22;;;;;;;7.50;4.85;;;7.80;90.30;;;;;;5071703;28;20037;-66
2024/03/06 02:28:49;;;;;;;7.45;4.97;;;7.70;90.30;;;;;;5072308;28;20028;-66
2024/03/06 02:31:16;;;;;;;7.65;4.82;;;7.70;90.40;;;;;;5075815;28;20058;-66
2024/03/06 02:33:41;;;;;;;8.25;5.20;;;7.70;90.40;;;;;;5071421;28;20079;-65
2024/03/06 02:36:07;;;;;;;7.63;4.90;;;7.70;90.40;;;;;;5078587;28;20028;-65
2024/03/06 02:38:32;;;;;;;7.70;4.90;;;7.70;90.40;;;;;;5086901;28;20024;-66
2024/03/06 02:40:59;;;;;;;7.63;4.93;;;7.60;90.30;;;;;;5079422;28;20043;-66
2024/03/06 02:43:24;;;;;;;7.85;5.20;;;7.70;90.20;;;;;;5075039;28;20390;-66
2024/03/06 02:45:50;;;;;;;7.22;4.72;;;7.60;90.20;;;;;;5073877;28;20048;-66
2024/03/06 02:48:16;;;;;;;6.47;4.43;;;7.60;90.30;;;;;;5073221;28;20052;-65
2024/03/06 02:50:41;;;;;;;6.93;4.60;;;7.50;90.30;;;;;;5069513;28;20029;-65
2024/03/06 02:53:07;;;;;;;8.15;4.68;;;7.50;90.20;;;;;;5073210;28;20036;-65
2024/03/06 02:55:32;;;;;;;7.10;4.82;;;7.40;90.30;;;;;;5076664;28;20281;-65
2024/03/06 02:58:02;;;;;;;7.30;4.70;;;7.40;90.70;;;;;;5076785;28;20039;-65
2024/03/06 03:00:28;;;;;;;6.28;4.40;;;7.40;90.40;;;;;;5075415;28;20028;-65
2024/03/06 03:02:53;;;;;;;7.97;4.93;;;7.30;90.50;;;;;;5085677;28;20028;-66
2024/03/06 03:05:19;;;;;;;9.23;4.70;;;7.30;90.50;;;;;;5074893;28;20498;-66
2024/03/06 03:07:44;;;;;;;6.90;4.43;;;7.30;90.50;;;;;;5076480;28;20147;-66
2024/03/06 03:10:10;;;;;;;6.95;4.18;;;7.20;90.50;;;;;;5078592;28;20024;-68
2024/03/06 03:12:38;;;;;;;6.38;4.07;;;7.20;90.60;;;;;;5074886;28;20028;-67
2024/03/06 03:15:04;;;;;;;7.90;4.85;;;7.20;90.60;;;;;;5070948;28;20031;-67
2024/03/06 03:17:30;;;;;;;6.75;4.40;;;7.20;90.60;;;;;;5066010;28;20032;-67
2024/03/06 03:19:55;;;;;;;6.40;4.13;;;7.10;90.50;;;;;;5069129;28;20391;-67
2024/03/06 03:22:21;;;;;;;7.43;4.75;;;7.10;90.50;;;;;;5079136;28;20403;-67
2024/03/06 03:24:47;;;;;;;7.20;4.70;;;7.10;90.50;;;;;;5080145;28;20448;-67
2024/03/06 03:27:13;;;;;;;6.30;4.30;;;7.10;90.60;;;;;;5076526;28;20024;-66
2024/03/06 03:29:39;;;;;;;6.95;4.15;;;7.00;90.50;;;;;;5075421;28;20035;-66
2024/03/06 03:32:05;;;;;;;6.88;4.25;;;7.00;90.60;;;;;;5082057;28;20024;-65
2024/03/06 03:34:31;;;;;;;6.13;4.15;;;6.90;90.60;;;;;;5075373;28;20033;-66
2024/03/06 03:36:56;;;;;;;6.45;4.20;;;6.90;90.70;;;;;;5067830;28;20028;-66
2024/03/06 03:39:24;;;;;;;6.90;4.38;;;6.90;90.80;;;;;;5076251;28;20043;-66
2024/03/06 03:41:50;;;;;;;7.00;4.20;;;6.90;90.70;;;;;;5075586;28;20117;-66
2024/03/06 03:44:19;;;;;;;7.20;4.30;;;6.90;90.50;;;;;;5076460;28;20016;-66
2024/03/06 03:46:45;;;;;;;7.13;3.90;;;6.90;90.50;;;;;;5079186;28;20086;-66
2024/03/06 03:49:10;;;;;;;8.10;4.43;;;6.80;90.60;;;;;;5080443;28;20087;-66
2024/03/06 03:51:39;;;;;;;7.03;4.28;;;6.80;90.60;;;;;;5076507;28;20038;-65
2024/03/06 03:54:05;;;;;;;6.25;4.13;;;6.80;90.60;;;;;;5083980;28;20064;-67
2024/03/06 03:56:31;;;;;;;7.47;4.70;;;6.70;90.60;;;;;;5065802;28;20078;-66
2024/03/06 03:58:58;;;;;;;6.10;4.13;;;6.70;90.70;;;;;;5071486;28;20036;-67
2024/03/06 04:01:24;;;;;;;6.72;4.15;;;6.70;90.60;;;;;;5073765;28;20059;-67
2024/03/06 04:03:50;;;;;;;6.75;4.05;;;6.70;90.60;;;;;;5084738;28;20024;-66
2024/03/06 04:06:16;;;;;;;6.75;4.25;;;6.80;90.60;;;;;;5075410;28;20021;-66
2024/03/06 04:08:42;;;;;;;7.18;4.35;;;6.80;90.50;;;;;;5072110;28;20025;-66
2024/03/06 04:11:07;;;;;;;6.90;4.20;;;6.70;90.50;;;;;;5079727;28;20021;-66
2024/03/06 04:13:37;;;;;;;7.28;4.20;;;6.70;90.60;;;;;;5075493;28;20425;-66
2024/03/06 04:16:02;;;;;;;6.22;3.95;;;6.70;90.70;;;;;;5067906;28;20029;-65
2024/03/06 04:18:29;;;;;;;7.40;4.60;;;6.70;90.70;;;;;;5075801;28;20482;-66
2024/03/06 04:20:55;;;;;;;7.22;4.30;;;6.70;90.60;;;;;;5078426;28;20032;-66
2024/03/06 04:23:20;;;;;;;6.05;3.80;;;6.70;90.50;;;;;;5073416;28;20035;-66
2024/03/06 04:25:46;;;;;;;6.97;4.25;;;6.70;90.50;;;;;;5081016;28;20094;-66
2024/03/06 04:28:12;;;;;;;7.43;4.68;;;6.70;90.50;;;;;;5074542;28;20116;-66
2024/03/06 04:30:38;;;;;;;7.63;4.60;;;6.80;90.50;;;;;;5077085;28;20073;-67
2024/03/06 04:33:04;;;;;;;7.13;4.15;;;6.80;90.40;;;;;;5078638;28;20028;-66
2024/03/06 04:35:29;;;;;;;6.63;4.32;;;6.80;90.40;;;;;;5075341;28;20021;-65
2024/03/06 04:37:55;;;;;;;6.93;4.28;;;6.80;90.40;;;;;;5068885;28;20764;-66
2024/03/06 04:40:22;;;;;;;6.47;4.15;;;6.90;90.40;;;;;;5072757;28;20021;-67
2024/03/06 04:42:48;;;;;;;7.88;4.68;;;6.90;90.40;;;;;;5074815;28;20081;-67
2024/03/06 04:45:17;;;;;;;8.07;5.00;;;7.00;90.30;;;;;;5071459;28;20061;-67
2024/03/06 04:47:43;;;;;;;7.32;4.53;;;7.00;90.30;;;;;;5070663;28;20398;-65
2024/03/06 04:50:10;;;;;;;7.28;4.15;;;7.00;90.30;;;;;;5077821;28;20016;-66
2024/03/06 04:52:36;;;;;;;7.05;4.22;;;7.00;90.20;;;;;;5080024;28;20028;-66
2024/03/06 04:55:03;;;;;;;8.13;4.72;;;7.00;90.20;;;;;;5068799;28;20378;-66
2024/03/06 04:57:28;;;;;;;7.95;4.70;;;6.90;90.30;;;;;;5073543;28;20055;-66
2024/03/06 04:59:54;;;;;;;8.82;4.95;;;6.90;90.30;;;;;;5076868;28;20479;-66
2024/03/06 05:02:20;;;;;;;7.05;4.72;;;6.90;90.30;;;;;;5081465;28;20032;-66
2024/03/06 05:04:46;;;;;;;6.80;4.22;;;6.90;90.40;;;;;;5073838;28;20544;-65
2024/03/06 05:07:13;;;;;;;8.05;4.57;;;6.90;90.40;;;;;;5080646;28;20027;-66
2024/03/06 05:09:40;;;;;;;7.03;4.40;;;6.90;90.40;;;;;;5080611;28;20050;-67
2024/03/06 05:12:07;;;;;;;7.93;4.68;;;6.90;90.40;;;;;;5071642;28;20028;-68
2024/03/06 05:14:32;;;;;;;7.55;4.97;;;6.90;90.30;;;;;;5071938;28;20027;-67
2024/03/06 05:16:58;;;;;;;7.68;4.43;;;6.90;90.30;;;;;;5077436;28;20382;-67
2024/03/06 05:19:30;;;;;;;9.95;5.32;;;6.90;90.30;;;;;;5076903;28;20400;-67
2024/03/06 05:21:55;;;;;;;7.03;4.15;;;6.80;90.30;;;;;;5070967;28;20052;-66
2024/03/06 05:24:21;;;;;;;7.93;4.75;;;6.80;90.40;;;;;;5077008;28;20380;-66
2024/03/06 05:26:47;;;;;;;8.13;4.80;;;6.80;90.40;;;;;;5071371;28;20028;-67
2024/03/06 05:29:12;;;;;;;8.23;5.10;;;6.80;90.40;;;;;;5076197;28;20024;-67
2024/03/06 05:31:38;;;;;;;7.43;4.53;;;6.80;90.40;;;;;;5074466;28;20028;-67
2024/03/06 05:34:05;;;;;;;8.35;5.10;;;6.80;90.50;;;;;;5073620;28;20037;-68
2024/03/06 05:36:31;;;;;;;8.93;4.97;;;6.80;90.50;;;;;;5069700;28;20099;-67
2024/03/06 05:38:56;;;;;;;6.95;4.60;;;6.80;90.50;;;;;;5100652;28;20174;-67
2024/03/06 05:41:22;;;;;;;7.03;4.25;;;6.70;90.50;;;;;;5068226;28;20020;-65
2024/03/06 05:43:47;;;;;;;7.85;4.55;;;6.70;90.60;;;;;;5075881;28;20023;-65
2024/03/06 05:46:13;;;;;;;6.88;4.03;;;6.70;90.70;;;;;;5072104;28;20032;-65
2024/03/06 05:48:38;;;;;;;7.45;4.13;;;6.60;90.70;;;;;;5069146;28;20111;-66
2024/03/06 05:51:05;;;;;;;8.15;4.65;;;6.60;90.80;;;;;;5074056;28;20052;-66
2024/03/06 05:53:40;;;;;;;6.97;4.35;;;6.60;90.90;;;;;;5074519;28;20024;-65
2024/03/06 05:56:06;;;;;;;5.93;4.00;;;6.60;90.90;;;;;;5070410;28;20463;-66
2024/03/06 05:58:32;;;;;;;7.50;4.38;;;6.60;91.00;;;;;;5071157;28;20031;-65
2024/03/06 06:00:58;;;;;;;7.32;4.63;;;6.60;90.90;;;;;;5071528;28;20099;-65
2024/03/06 06:03:24;;;;;;;7.10;4.55;;;6.60;90.80;;;;;;5079645;28;20111;-65
2024/03/06 06:05:49;;;;;;;6.82;4.25;;;6.50;90.90;;;;;;5084405;28;20417;-66
2024/03/06 06:08:15;;;;;;;7.35;4.45;;;6.50;90.90;;;;;;5081284;28;20020;-66
2024/03/06 06:10:41;;;;;;;6.43;4.50;;;6.60;90.90;;;;;;5073584;28;20054;-66
2024/03/06 06:13:06;;;;;;;8.98;4.97;;;6.50;90.90;;;;;;5076113;28;20508;-66
2024/03/06 06:15:32;;;;;;;8.20;4.80;;;6.50;91.00;;;;;;5077584;28;20027;-65
2024/03/06 06:17:58;;;;;;;8.48;4.50;;;6.50;91.00;;;;;;5083765;28;20028;-65
2024/03/06 06:20:24;;;;;;;8.02;5.10;;;6.40;91.10;;;;;;5074285;28;20431;-66
2024/03/06 06:22:49;;;;;;;6.97;4.20;;;6.40;91.10;;;;;;5073622;28;20017;-66
2024/03/06 06:25:16;;;;;;;9.73;5.88;;;6.40;91.20;;;;;;5076625;28;20020;-65
2024/03/06 06:27:41;;;;;;;12.70;7.10;;;6.40;91.30;;;;;;5070871;28;20085;-65
2024/03/06 06:30:11;;;;;;;10.18;6.40;;;6.40;91.30;;;;;;5073616;28;20029;-64
2024/03/06 06:32:40;;;;;;;11.00;6.00;;;6.40;91.30;;;;;;5074441;28;20021;-65
2024/03/06 06:35:06;;;;;;;9.38;5.80;;;6.50;91.30;;;;;;5072022;28;20025;-66
2024/03/06 06:37:32;;;;;;;10.45;6.50;;;6.50;91.30;;;;;;5080314;28;20027;-66
2024/03/06 06:39:59;;;;;;;8.45;5.57;;;6.60;91.40;;;;;;5071410;28;20031;-65
2024/03/06 06:42:24;;;;;;;10.07;6.05;;;6.60;91.30;;;;;;5076451;28;20531;-66
2024/03/06 06:44:50;;;;;;;10.63;5.82;;;6.60;91.30;;;;;;5071859;28;20032;-66
2024/03/06 06:47:17;;;;;;;11.55;6.97;;;6.70;91.30;;;;;;5074179;28;20027;-67
2024/03/06 06:49:42;;;;;;;11.73;7.00;;;6.70;91.30;;;;;;5072867;28;20047;-66
2024/03/06 06:52:08;;;;;;;10.63;6.50;;;6.80;91.30;;;;;;5069741;28;20474;-66
2024/03/06 06:54:33;;;;;;;11.02;6.18;;;6.80;91.30;;;;;;5082909;28;20043;-66
2024/03/06 06:56:59;;;;;;;9.02;5.20;;;6.80;91.20;;;;;;5077391;28;20169;-66
2024/03/06 06:59:25;;;;;;;8.82;5.32;;;6.90;91.20;;;;;;5081476;28;20040;-67
2024/03/06 07:01:50;;;;;;;9.65;5.40;;;7.00;91.20;;;;;;5072543;28;20028;-67
2024/03/06 07:04:20;;;;;;;9.75;5.50;;;7.00;91.10;;;;;;5073158;28;20090;-67
2024/03/06 07:06:46;;;;;;;11.93;7.05;;;7.00;91.10;;;;;;5071693;28;20380;-67
2024/03/06 07:09:15;;;;;;;12.07;7.25;;;7.10;91.20;;;;;;5068494;28;20100;-66
2024/03/06 07:11:41;;;;;;;10.50;5.90;;;7.10;91.20;;;;;;5068871;28;20399;-66
2024/03/06 07:14:07;;;;;;;11.98;6.40;;;7.20;91.10;;;;;;5072133;28;20021;-67
2024/03/06 07:16:33;;;;;;;9.95;5.70;;;7.20;91.10;;;;;;5074322;28;20024;-67
2024/03/06 07:18:59;;;;;;;11.15;6.43;;;7.30;91.00;;;;;;5071225;28;20036;-66
2024/03/06 07:21:25;;;;;;;11.00;6.93;;;7.30;91.00;;;;;;5071587;28;20038;-67
2024/03/06 07:23:51;;;;;;;12.95;7.38;;;7.30;91.00;;;;;;5082997;28;20024;-67
2024/03/06 07:26:16;;;;;;;12.85;7.38;;;7.30;91.10;;;;;;5080402;28;20035;-67
2024/03/06 07:28:42;;;;;;;12.40;6.70;;;7.30;91.10;;;;;;5081883;28;20064;-67
2024/03/06 07:31:07;;;;;;;10.38;6.43;;;7.40;91.20;;;;;;5074585;28;20021;-67
2024/03/06 07:33:34;;;;;;;8.35;5.22;;;7.50;91.20;;;;;;5069738;28;20024;-67
2024/03/06 07:35:59;;;;;;;12.52;6.45;;;7.50;91.20;;;;;;5084004;28;20031;-67
2024/03/06 07:38:25;;;;;;;9.65;5.80;;;7.60;91.10;;;;;;5078637;28;20111;-67
2024/03/06 07:40:50;;;;;;;11.77;6.60;;;7.60;91.10;;;;;;5072042;28;20031;-67
2024/03/06 07:43:16;;;;;;;11.60;7.10;;;7.60;91.10;;;;;;5079318;28;20036;-67
2024/03/06 07:45:42;;;;;;;13.50;7.05;;;7.50;91.10;;;;;;5069003;28;20017;-66
2024/03/06 07:48:09;;;;;;;9.13;5.70;;;7.50;91.10;;;;;;5069244;28;20493;-66
2024/03/06 07:50:35;;;;;;;8.93;5.38;;;7.60;91.10;;;;;;5074855;28;20043;-67
2024/03/06 07:53:02;;;;;;;8.77;4.88;;;7.60;91.10;;;;;;5075868;28;20020;-66
2024/03/06 07:55:28;;;;;;;9.30;4.68;;;7.70;91.00;;;;;;5077084;28;20028;-66
2024/03/06 07:57:53;;;;;;;12.10;5.45;;;7.50;91.00;;;;;;5068137;28;20120;-66
2024/03/06 08:00:19;;;;;;;7.93;4.40;;;7.50;91.20;;;;;;5069331;28;20127;-66
2024/03/06 08:02:51;;;;;;;7.72;4.93;;;7.40;91.20;;;;;;5068485;28;20036;-67
2024/03/06 08:05:18;;;;;;;6.43;4.35;;;7.30;91.30;;;;;;5070794;28;20514;-67
2024/03/06 08:07:44;;;;;;;4.95;3.65;;;7.30;91.40;;;;;;5076823;28;20032;-67
2024/03/06 08:10:14;;;;;;;7.88;4.65;;;7.30;91.60;;;;;;5070440;28;20008;-67
2024/03/06 08:12:43;;;;;;;7.50;4.38;;;7.30;91.60;;;;;;5067436;28;20037;-67
2024/03/06 08:15:11;;;;;;;8.15;4.60;;;7.30;91.70;;;;;;5068530;28;20032;-67
2024/03/06 08:17:41;;;;;;;7.07;4.50;;;7.30;91.70;;;;;;5068819;28;20119;-68
2024/03/06 08:20:07;;;;;;;7.80;4.28;;;7.30;91.80;;;;;;5072555;28;20074;-67
2024/03/06 08:22:38;;;;;;;8.43;4.53;;;7.30;91.80;;;;;;5066679;28;20025;-67
2024/03/06 08:25:13;;;;;;;19.73;8.20;;;7.50;91.80;;;;;;5066987;28;20027;-67
2024/03/06 08:27:40;;;;;;;25.95;10.02;;;7.50;91.70;;;;;;5066578;28;20290;-67
2024/03/06 08:30:08;;;;;;;14.40;8.85;;;7.60;91.60;;;;;;5068098;28;20024;-67
2024/03/06 08:32:35;;;;;;;18.95;7.53;;;7.60;91.60;;;;;;5072687;28;20101;-67
2024/03/06 08:35:13;;;;;;;11.25;7.25;;;7.70;91.50;;;;;;5073772;28;20024;-67
2024/03/06 08:37:39;;;;;;;8.18;5.13;;;7.70;91.40;;;;;;5067056;28;20579;-66
2024/03/06 08:40:07;;;;;;;10.27;6.50;;;7.70;91.40;;;;;;5066696;28;20028;-67
2024/03/06 08:42:33;;;;;;;15.85;6.95;;;7.70;91.40;;;;;;5066330;28;20032;-67
2024/03/06 08:44:58;;;;;;;8.95;5.40;;;7.70;91.50;;;;;;5067683;28;20017;-67
2024/03/06 08:47:24;;;;;;;10.82;6.80;;;7.70;91.50;;;;;;5067005;28;20028;-67
2024/03/06 08:49:50;;;;;;;16.63;9.52;;;7.80;91.50;;;;;;5068439;28;20021;-68
2024/03/06 08:52:15;;;;;;;13.73;7.38;;;7.80;91.50;;;;;;5068267;28;20020;-67
2024/03/06 08:54:44;;;;;;;18.98;8.98;;;7.70;91.50;;;;;;5068477;28;20032;-67
2024/03/06 08:57:10;;;;;;;14.70;7.78;;;7.80;91.50;;;;;;5071294;28;20028;-67
2024/03/06 08:59:36;;;;;;;16.55;9.68;;;7.90;91.50;;;;;;5067214;28;20597;-67
2024/03/06 09:02:19;;;;;;;18.17;8.95;;;7.90;91.50;;;;;;5067995;28;20103;-66
2024/03/06 09:04:45;;;;;;;18.08;9.65;;;7.90;91.50;;;;;;5065170;28;20031;-67
2024/03/06 09:07:12;;;;;;;13.55;7.47;;;7.90;91.40;;;;;;5063435;28;20034;-67
2024/03/06 09:09:38;;;;;;;12.45;7.05;;;7.90;91.60;;;;;;5067092;28;20066;-67
2024/03/06 09:12:11;;;;;;;13.88;6.70;;;7.90;91.50;;;;;;5063663;28;20538;-66
2024/03/06 09:14:38;;;;;;;9.55;5.63;;;8.00;91.50;;;;;;5069808;28;20513;-69
2024/03/06 09:17:05;;;;;;;10.63;6.10;;;8.00;91.60;;;;;;5068478;28;20025;-66
2024/03/06 09:19:31;;;;;;;9.15;5.72;;;8.00;91.60;;;;;;5070713;28;20032;-66
2024/03/06 09:21:57;;;;;;;10.73;5.47;;;8.10;91.70;;;;;;5069102;28;20025;-65
2024/03/06 09:24:23;;;;;;;11.68;5.95;;;8.20;91.60;;;;;;5062344;28;20376;-66
2024/03/06 09:26:49;;;;;;;12.50;6.35;;;8.30;91.50;;;;;;5065778;28;20552;-66
2024/03/06 09:29:15;;;;;;;12.27;6.85;;;8.30;91.50;;;;;;5054511;28;20778;-66
2024/03/06 09:31:41;;;;;;;13.85;7.25;;;8.20;91.60;;;;;;5064430;28;20173;-68
2024/03/06 09:34:07;;;;;;;8.98;5.50;;;8.20;91.70;;;;;;5066077;28;20604;-66
2024/03/06 09:36:33;;;;;;;13.70;7.25;;;8.20;91.80;;;;;;5062098;28;20031;-67
2024/03/06 09:38:59;;;;;;;13.30;7.03;;;8.20;91.80;;;;;;5068767;28;20443;-67
2024/03/06 09:41:25;;;;;;;23.58;9.63;;;8.30;91.90;;;;;;5065262;28;20028;-67
2024/03/06 09:43:50;;;;;;;24.23;9.90;;;8.30;91.90;;;;;;5064765;28;20024;-67
2024/03/06 09:46:17;;;;;;;20.13;10.98;;;8.30;92.00;;;;;;5068900;28;20023;-67
2024/03/06 09:48:49;;;;;;;14.55;7.45;;;8.40;92.00;;;;;;5063889;28;20028;-66
2024/03/06 09:51:15;;;;;;;17.02;9.32;;;8.40;91.90;;;;;;5069806;28;20024;-67
2024/03/06 09:53:43;;;;;;;14.93;8.23;;;8.40;91.80;;;;;;5070508;28;20043;-67
2024/03/06 09:56:09;;;;;;;14.70;8.20;;;8.50;91.90;;;;;;5064127;28;20035;-66
2024/03/06 09:58:35;;;;;;;16.30;8.43;;;8.40;91.70;;;;;;5067907;28;20024;-66
2024/03/06 10:01:03;;;;;;;14.93;7.82;;;8.40;91.90;;;;;;5062517;28;20025;-66
2024/03/06 10:03:29;;;;;;;13.77;6.75;;;8.40;92.00;;;;;;5065608;28;20025;-66
2024/03/06 10:05:55;;;;;;;13.43;6.60;;;8.60;92.00;;;;;;5065203;28;20070;-67
2024/03/06 10:08:21;;;;;;;16.15;8.35;;;8.60;92.00;;;;;;5065022;28;20040;-67
2024/03/06 10:10:49;;;;;;;25.15;12.30;;;8.60;91.90;;;;;;5065982;28;20041;-67
2024/03/06 10:13:17;;;;;;;17.67;9.18;;;8.60;91.90;;;;;;5064753;28;20032;-67
2024/03/06 10:15:55;;;;;;;18.58;9.00;;;8.60;91.90;;;;;;5062875;28;20024;-67
2024/03/06 10:18:21;;;;;;;12.73;6.00;;;8.60;91.90;;;;;;5066434;28;20094;-67
2024/03/06 10:20:46;;;;;;;16.50;7.38;;;8.70;91.80;;;;;;5069865;28;20432;-67
2024/03/06 10:23:12;;;;;;;15.82;7.95;;;8.70;91.80;;;;;;5064548;28;20111;-67
2024/03/06 10:25:38;;;;;;;12.90;7.10;;;8.80;91.90;;;;;;5063739;28;20107;-67
2024/03/06 10:28:11;;;;;;;21.00;9.18;;;8.80;91.80;;;;;;5063546;28;20480;-67
2024/03/06 10:30:41;;;;;;;17.25;8.27;;;8.90;91.80;;;;;;5072691;28;20278;-66
2024/03/06 10:33:08;;;;;;;16.98;8.68;;;8.80;91.80;;;;;;5065141;28;20425;-65
2024/03/06 10:35:37;;;;;;;14.07;6.90;;;8.80;91.90;;;;;;5065453;28;20044;-66
2024/03/06 10:38:04;;;;;;;10.85;6.05;;;8.80;91.90;;;;;;5064297;28;20032;-66
2024/03/06 10:40:32;;;;;;;14.75;6.20;;;8.90;91.90;;;;;;5066895;28;20099;-66
2024/03/06 10:43:00;;;;;;;11.70;6.18;;;8.90;91.90;;;;;;5064242;28;20024;-66
2024/03/06 10:45:49;;;;;;;10.90;6.10;;;8.90;92.00;;;;;;5068064;28;20513;-66
2024/03/06 10:48:16;;;;;;;11.77;6.18;;;9.00;92.00;;;;;;5064175;28;20021;-66
2024/03/06 10:50:44;;;;;;;21.63;9.90;;;9.20;91.90;;;;;;5102960;28;20028;-67
2024/03/06 10:53:11;;;;;;;17.98;8.48;;;9.20;91.70;;;;;;5068836;28;20017;-67
2024/03/06 10:55:37;;;;;;;26.23;11.75;;;9.30;91.60;;;;;;5070594;28;20032;-67
2024/03/06 10:58:08;;;;;;;18.35;8.25;;;9.40;91.60;;;;;;5068118;28;20025;-65
2024/03/06 11:00:37;;;;;;;12.18;5.95;;;9.40;91.50;;;;;;5073924;28;20110;-66
2024/03/06 11:03:07;;;;;;;13.98;7.68;;;9.50;91.60;;;;;;5063075;28;20399;-66
2024/03/06 11:05:40;;;;;;;16.05;7.70;;;9.50;91.40;;;;;;5070789;28;20035;-66
2024/03/06 11:08:13;;;;;;;16.02;8.25;;;9.60;91.40;;;;;;5072858;28;20086;-65
2024/03/06 11:10:40;;;;;;;15.55;7.82;;;9.50;91.40;;;;;;5068341;28;20043;-66
2024/03/06 11:13:22;;;;;;;15.48;7.45;;;9.60;91.40;;;;;;5071088;28;20042;-66
2024/03/06 11:15:49;;;;;;;13.07;6.38;;;9.80;91.50;;;;;;5066492;28;20032;-65
2024/03/06 11:18:30;;;;;;;16.25;8.38;;;9.90;91.30;;;;;;5067756;28;20017;-66
2024/03/06 11:21:02;;;;;;;13.20;7.03;;;9.80;91.20;;;;;;5069807;28;20032;-66
2024/03/06 11:23:28;;;;;;;17.80;7.90;;;9.70;91.30;;;;;;5063455;28;20063;-66
2024/03/06 11:25:54;;;;;;;20.85;10.30;;;9.60;91.40;;;;;;5068210;28;20057;-67
2024/03/06 11:28:20;;;;;;;18.67;9.30;;;9.60;91.50;;;;;;5069908;28;20072;-66
2024/03/06 11:31:03;;;;;;;17.63;7.75;;;9.80;91.60;;;;;;5064848;28;20032;-66
2024/03/06 11:33:38;;;;;;;25.38;12.75;;;10.00;91.50;;;;;;5064470;28;20078;-66
2024/03/06 11:36:28;;;;;;;26.58;13.18;;;10.10;91.30;;;;;;5070012;28;20024;-66
2024/03/06 11:38:57;;;;;;;25.02;12.35;;;10.20;91.30;;;;;;5068960;28;20528;-66
2024/03/06 11:41:24;;;;;;;19.55;10.00;;;10.20;91.00;;;;;;5071798;28;20055;-67
2024/03/06 11:43:53;;;;;;;22.80;11.63;;;10.20;91.00;;;;;;5071148;28;20074;-67
2024/03/06 11:46:19;;;;;;;15.45;7.72;;;10.20;91.00;;;;;;5073914;28;20379;-67
2024/03/06 11:48:55;;;;;;;17.77;9.02;;;10.20;91.10;;;;;;5069547;28;20020;-66
2024/03/06 11:51:24;;;;;;;15.80;7.35;;;10.20;91.10;;;;;;5066826;28;20029;-65
2024/03/06 11:53:53;;;;;;;17.58;9.10;;;10.20;91.20;;;;;;5065618;28;20085;-66
2024/03/06 11:56:20;;;;;;;18.58;8.93;;;10.40;91.50;;;;;;5068839;28;20042;-66
2024/03/06 11:58:46;;;;;;;20.50;10.40;;;10.50;90.90;;;;;;5064322;28;20487;-66
2024/03/06 12:01:13;;;;;;;22.23;11.43;;;10.50;90.80;;;;;;5066018;28;20052;-67
2024/03/06 12:03:39;;;;;;;17.83;9.57;;;10.50;90.70;;;;;;5069840;28;20032;-66
2024/03/06 12:06:05;;;;;;;15.05;8.05;;;10.60;90.90;;;;;;5069692;28;20023;-67
2024/03/06 12:08:31;;;;;;;16.00;8.15;;;10.60;90.80;;;;;;5067350;28;20017;-66
2024/03/06 12:10:57;;;;;;;11.65;6.07;;;10.70;90.70;;;;;;5065990;28;20921;-67
2024/03/06 12:13:24;;;;;;;15.05;7.55;;;10.80;90.60;;;;;;5070583;28;20111;-67
2024/03/06 12:15:50;;;;;;;21.77;10.98;;;10.90;90.60;;;;;;5069623;28;20048;-66
2024/03/06 12:18:18;;;;;;;19.42;10.32;;;10.80;90.30;;;;;;5071546;28;20063;-67
2024/03/06 12:20:45;;;;;;;25.17;12.30;;;10.70;90.50;;;;;;5067410;28;20483;-67
2024/03/06 12:23:21;;;;;;;18.13;9.75;;;10.90;90.70;;;;;;5070223;28;20024;-67
2024/03/06 12:25:47;;;;;;;15.95;8.57;;;11.00;90.60;;;;;;5069296;28;20021;-67
2024/03/06 12:28:12;;;;;;;17.42;8.95;;;11.20;90.40;;;;;;5082094;28;20123;-67
2024/03/06 12:30:43;;;;;;;21.08;10.60;;;11.20;90.20;;;;;;5066390;28;20024;-66
2024/03/06 12:33:09;;;;;;;28.48;14.52;;;11.10;90.10;;;;;;5071755;28;20039;-67
2024/03/06 12:35:35;;;;;;;21.00;10.93;;;11.10;90.10;;;;;;5067164;28;20399;-67
2024/03/06 12:38:14;;;;;;;20.80;9.98;;;11.30;90.40;;;;;;5071946;28;20081;-67
2024/03/06 12:40:41;;;;;;;19.55;9.93;;;11.40;90.20;;;;;;5070329;28;20097;-66
2024/03/06 12:43:06;;;;;;;17.60;9.30;;;11.50;90.10;;;;;;5070364;28;20063;-67
2024/03/06 12:45:33;;;;;;;14.30;7.90;;;11.60;90.10;;;;;;5067142;28;20052;-67
2024/03/06 12:47:59;;;;;;;12.50;6.80;;;11.80;90.00;;;;;;5069730;28;20012;-66